createdAt,value
2022-10-23T00:03:26.547Z,100.00
2022-10-23T00:08:28.677Z,100.00
2022-10-23T00:13:31.007Z,100.00
2022-10-23T00:18:33.850Z,100.00
2022-10-23T00:23:36.109Z,100.00
2022-10-23T00:28:38.749Z,100.00
2022-10-23T00:33:42.053Z,100.00
2022-10-23T00:38:45.153Z,100.00
2022-10-23T00:44:01.615Z,100.00
2022-10-23T00:49:05.690Z,100.00
2022-10-23T00:54:23.542Z,100.00
2022-10-23T00:59:27.772Z,100.00
2022-10-23T01:04:30.978Z,100.00
2022-10-23T01:09:42.606Z,100.00
2022-10-23T01:15:03.163Z,100.00
2022-10-23T01:20:25.634Z,100.00
2022-10-23T01:25:52.410Z,100.00
2022-10-23T01:30:58.364Z,100.00
2022-10-23T01:36:12.593Z,100.00
2022-10-23T01:41:21.491Z,100.00
2022-10-23T01:46:26.300Z,100.00
2022-10-23T01:51:31.336Z,100.00
2022-10-23T01:56:42.246Z,100.00
2022-10-23T02:01:48.849Z,100.00
2022-10-23T02:06:51.450Z,100.00
2022-10-23T02:12:25.253Z,100.00
2022-10-23T02:18:12.120Z,100.00
2022-10-23T02:23:28.053Z,100.00
2022-10-23T02:28:40.657Z,100.00
2022-10-23T02:33:47.251Z,100.00
2022-10-23T02:38:49.734Z,100.00
2022-10-23T02:44:10.358Z,100.00
2022-10-23T02:49:20.505Z,100.00
2022-10-23T02:54:42.035Z,100.00
2022-10-23T02:59:47.702Z,100.00
2022-10-23T03:04:54.148Z,100.00
2022-10-23T03:09:56.607Z,100.00
2022-10-23T03:14:58.967Z,100.00
2022-10-23T03:20:01.141Z,100.00
2022-10-23T03:25:03.658Z,91.63
2022-10-23T03:30:08.309Z,75.27
2022-10-23T03:35:13.121Z,66.57
2022-10-23T03:40:15.562Z,63.06
2022-10-23T03:45:17.902Z,62.11
2022-10-23T03:50:20.677Z,58.42
2022-10-23T03:55:23.562Z,57.08
2022-10-23T04:00:27.932Z,55.52
2022-10-23T04:05:30.370Z,55.65
2022-10-23T04:10:34.117Z,55.83
2022-10-23T04:15:36.682Z,56.56
2022-10-23T04:20:39.152Z,57.11
2022-10-23T04:25:41.585Z,59.14
2022-10-23T04:30:44.210Z,60.34
2022-10-23T04:35:47.914Z,61.76
2022-10-23T04:40:50.271Z,63.50
2022-10-23T04:45:56.463Z,67.21
2022-10-23T04:51:02.158Z,68.77
2022-10-23T04:56:24.502Z,70.30
2022-10-23T05:01:36.106Z,71.34
2022-10-23T05:06:41.193Z,71.30
2022-10-23T05:12:06.481Z,71.78
2022-10-23T05:17:14.308Z,72.47
2022-10-23T05:22:18.786Z,72.22
2022-10-23T05:27:23.694Z,69.17
2022-10-23T05:32:31.640Z,69.33
2022-10-23T05:37:37.386Z,69.26
2022-10-23T05:42:54.995Z,69.29
2022-10-23T05:48:17.038Z,65.96
2022-10-23T05:53:56.065Z,63.48
2022-10-23T05:59:10.514Z,62.08
2022-10-23T06:04:30.388Z,62.95
2022-10-23T06:09:53.453Z,62.13
2022-10-23T06:14:56.886Z,61.80
2022-10-23T06:20:16.139Z,60.90
2022-10-23T06:25:33.354Z,59.95
2022-10-23T06:30:40.298Z,59.32
2022-10-23T06:35:46.127Z,56.41
2022-10-23T06:53:28.643Z,34.45
2022-10-23T06:58:45.223Z,34.22
2022-10-23T07:04:43.055Z,33.31
2022-10-23T07:09:53.102Z,29.79
2022-10-23T07:14:59.875Z,29.25
2022-10-23T07:20:02.532Z,28.37
2022-10-23T07:25:05.726Z,30.26
2022-10-23T07:30:13.946Z,31.27
2022-10-23T07:35:24.936Z,33.54
2022-10-23T07:40:38.773Z,33.41
2022-10-23T07:45:46.756Z,35.38
2022-10-23T07:51:04.180Z,34.95
2022-10-23T07:56:18.745Z,35.23
2022-10-23T08:01:56.862Z,38.67
2022-10-23T08:07:05.840Z,35.35
2022-10-23T08:12:15.471Z,36.34
2022-10-23T08:17:19.005Z,37.15
2022-10-23T08:22:37.475Z,35.60
2022-10-23T08:27:40.488Z,35.29
2022-10-23T08:32:43.161Z,34.26
2022-10-23T08:37:47.665Z,34.39
2022-10-23T08:43:22.169Z,35.35
2022-10-23T08:48:51.754Z,33.65
2022-10-23T08:54:55.892Z,37.40
2022-10-23T09:00:12.695Z,37.66
2022-10-23T09:05:25.467Z,36.19
2022-10-23T09:10:51.531Z,37.01
2022-10-23T09:16:03.972Z,36.62
2022-10-23T09:21:10.381Z,37.39
2022-10-23T09:26:18.495Z,37.39
2022-10-23T09:31:21.160Z,37.17
2022-10-23T09:36:29.479Z,37.11
2022-10-23T09:41:37.678Z,36.48
2022-10-23T09:52:08.683Z,36.15
2022-10-23T09:57:32.394Z,35.85
2022-10-23T10:02:36.892Z,36.14
2022-10-23T10:08:04.182Z,37.02
2022-10-23T10:13:34.822Z,35.66
2022-10-23T10:18:47.877Z,36.43
2022-10-23T10:24:12.836Z,37.79
2022-10-23T10:29:52.497Z,38.33
2022-10-23T10:35:19.516Z,37.79
2022-10-23T10:40:35.719Z,38.23
2022-10-23T10:45:52.783Z,40.10
2022-10-23T10:50:59.389Z,40.21
2022-10-23T10:56:19.374Z,40.47
2022-10-23T11:01:28.374Z,40.71
2022-10-23T11:06:36.473Z,40.18
2022-10-23T11:11:41.192Z,41.29
2022-10-23T11:17:10.462Z,41.18
2022-10-23T11:22:34.603Z,40.86
2022-10-23T11:27:42.993Z,41.04
2022-10-23T11:33:17.306Z,42.07
2022-10-23T11:38:30.240Z,42.91
2022-10-23T11:43:55.501Z,42.20
2022-10-23T11:48:58.791Z,43.00
2022-10-23T11:54:16.433Z,42.69
2022-10-23T11:59:29.534Z,41.75
2022-10-23T12:04:45.867Z,42.15
2022-10-23T12:10:01.669Z,42.18
2022-10-23T12:15:20.086Z,42.41
2022-10-23T12:20:39.524Z,42.91
2022-10-23T12:25:57.980Z,43.31
2022-10-23T12:31:31.664Z,43.21
2022-10-23T12:36:45.758Z,43.13
2022-10-23T12:41:48.098Z,43.84
2022-10-23T12:46:54.706Z,43.81
2022-10-23T12:52:04.784Z,43.99
2022-10-23T12:57:26.413Z,43.72
2022-10-23T13:02:33.155Z,44.19
2022-10-23T13:07:44.795Z,44.98
2022-10-23T13:13:02.983Z,45.74
2022-10-23T13:18:07.509Z,45.60
2022-10-23T13:23:33.132Z,45.94
2022-10-23T13:28:43.177Z,45.71
2022-10-23T13:34:09.975Z,45.97
2022-10-23T13:39:12.769Z,46.04
2022-10-23T13:44:17.460Z,46.05
2022-10-23T13:49:20.470Z,46.33
2022-10-23T13:59:30.386Z,46.51
2022-10-23T14:04:32.611Z,46.50
2022-10-23T14:09:34.750Z,47.31
2022-10-23T14:14:37.208Z,47.96
2022-10-23T14:19:39.567Z,48.21
2022-10-23T14:24:41.845Z,48.05
